Time;durP1;ratioP1;P1;durP2;ratioP2;P2;SDS_P1;SDS_P2;PMS_P1;PMS_P2;Temp;Humidity;BMP_temperature;BMP_pressure;BME280_temperature;BME280_humidity;BME280_pressure;Samples;Min_cycle;Max_cycle;Signal;HPM_P1;HPM_P2
2021/04/13 00:00:20;;;;;;;6.45;3.35;;;6.00;66.60;;;;;;5105965;28;27446;-61
2021/04/13 00:03:47;;;;;;;4.82;3.70;;;6.00;66.60;;;;;;5105592;28;27341;-61
2021/04/13 00:07:35;;;;;;;4.85;3.67;;;5.90;66.50;;;;;;5105804;28;27416;-61
2021/04/13 00:11:30;;;;;;;4.10;3.53;;;5.90;66.60;;;;;;5105668;28;27422;-61
2021/04/13 00:15:04;;;;;;;4.85;3.33;;;5.80;66.40;;;;;;5105516;28;27476;-61
2021/04/13 00:18:02;;;;;;;6.00;3.80;;;5.80;66.60;;;;;;5104475;28;27560;-60
2021/04/13 00:20:55;;;;;;;4.53;3.78;;;5.70;66.60;;;;;;5105504;28;27477;-60
2021/04/13 00:24:20;;;;;;;5.32;3.42;;;5.70;66.60;;;;;;5105751;28;27504;-60
2021/04/13 00:27:22;;;;;;;7.60;4.10;;;5.70;66.60;;;;;;5105475;28;27496;-61
2021/04/13 00:30:15;;;;;;;4.63;3.63;;;5.60;66.60;;;;;;5104596;28;27375;-61
2021/04/13 00:33:15;;;;;;;6.00;3.58;;;5.60;66.40;;;;;;5104926;28;27355;-62
2021/04/13 00:36:41;;;;;;;5.93;3.50;;;5.60;66.50;;;;;;5104224;28;27536;-61
2021/04/13 00:39:54;;;;;;;4.80;3.72;;;5.60;66.50;;;;;;5105193;28;27467;-61
2021/04/13 00:43:01;;;;;;;4.43;3.40;;;5.60;66.50;;;;;;5105516;28;27458;-61
2021/04/13 00:46:26;;;;;;;5.65;3.88;;;5.50;66.40;;;;;;5104698;28;27548;-60
2021/04/13 00:49:25;;;;;;;6.03;4.30;;;5.50;66.30;;;;;;5105102;28;27441;-60
2021/04/13 00:52:36;;;;;;;7.85;3.78;;;5.50;67.30;;;;;;5101397;28;27388;-60
2021/04/13 00:55:37;;;;;;;4.75;3.88;;;5.50;66.50;;;;;;5104812;28;27589;-60
2021/04/13 00:58:35;;;;;;;5.65;3.97;;;5.50;66.50;;;;;;5103288;28;27284;-61
2021/04/13 01:01:52;;;;;;;6.57;3.80;;;5.40;66.40;;;;;;5105149;28;27457;-60
2021/04/13 01:04:46;;;;;;;5.00;3.67;;;5.40;66.40;;;;;;5102750;28;27356;-61
2021/04/13 01:07:40;;;;;;;4.85;3.90;;;5.40;66.40;;;;;;5101120;28;27374;-60
2021/04/13 01:11:08;;;;;;;5.35;3.75;;;5.40;66.50;;;;;;5104792;28;27480;-61
2021/04/13 01:14:36;;;;;;;5.70;3.83;;;5.30;66.50;;;;;;5104760;28;27413;-61
2021/04/13 01:17:28;;;;;;;5.88;3.85;;;5.30;66.60;;;;;;5105050;28;27324;-65
2021/04/13 01:20:18;;;;;;;4.20;3.80;;;5.30;66.50;;;;;;5104933;28;27361;-60
2021/04/13 01:23:54;;;;;;;4.57;3.58;;;5.30;66.50;;;;;;5104890;28;27450;-60
2021/04/13 01:27:14;;;;;;;5.05;3.70;;;5.20;66.40;;;;;;5103889;28;27485;-61
2021/04/13 01:30:44;;;;;;;7.60;3.20;;;5.20;66.50;;;;;;5104646;28;27337;-60
2021/04/13 01:34:37;;;;;;;6.18;3.65;;;5.20;66.70;;;;;;5100952;28;27374;-61
2021/04/13 01:41:19;;;;;;;5.43;3.55;;;5.10;67.30;;;;;;5104584;28;27319;-61
2021/04/13 01:44:31;;;;;;;3.95;3.58;;;5.10;67.80;;;;;;5103442;28;27597;-61
2021/04/13 01:47:44;;;;;;;7.82;3.60;;;5.10;68.20;;;;;;5103463;28;27375;-60
2021/04/13 01:50:59;;;;;;;5.38;3.58;;;5.10;68.30;;;;;;5100956;28;27851;-61
2021/04/13 01:54:13;;;;;;;5.65;4.05;;;5.10;68.20;;;;;;5104409;28;27375;-61
2021/04/13 01:57:13;;;;;;;8.90;5.57;;;5.10;68.00;;;;;;5101070;28;27371;-61
2021/04/13 02:00:26;;;;;;;9.60;5.65;;;5.10;67.80;;;;;;5104086;28;27501;-61
2021/04/13 02:03:34;;;;;;;10.60;5.10;;;5.00;67.50;;;;;;5103570;28;27362;-61
2021/04/13 02:07:04;;;;;;;8.18;5.00;;;5.10;67.50;;;;;;5103942;28;27411;-61
2021/04/13 02:10:24;;;;;;;8.70;4.28;;;5.00;67.20;;;;;;5102077;27;27442;-60
2021/04/13 02:14:06;;;;;;;6.95;4.85;;;5.00;67.10;;;;;;5106718;28;27585;-61
2021/04/13 02:17:48;;;;;;;6.50;4.18;;;5.00;67.10;;;;;;5106786;28;27938;-62
2021/04/13 02:21:06;;;;;;;7.25;4.38;;;4.90;67.10;;;;;;5106611;28;27352;-62
2021/04/13 02:24:26;;;;;;;5.93;4.40;;;4.90;67.00;;;;;;5107773;28;27394;-61
2021/04/13 02:27:33;;;;;;;7.88;4.38;;;4.90;66.90;;;;;;5107427;28;27455;-61
2021/04/13 02:31:00;;;;;;;9.52;4.60;;;4.90;66.80;;;;;;5106446;28;27899;-61
2021/04/13 02:34:45;;;;;;;6.00;4.07;;;4.90;66.50;;;;;;5107316;28;27357;-61
2021/04/13 02:38:02;;;;;;;6.90;4.75;;;4.90;66.60;;;;;;5107631;28;27370;-61
2021/04/13 02:41:38;;;;;;;6.55;5.10;;;4.80;66.50;;;;;;5107227;28;27464;-61
2021/04/13 02:45:12;;;;;;;5.35;4.22;;;4.80;66.40;;;;;;5107005;28;27476;-61
2021/04/13 02:48:27;;;;;;;7.07;5.28;;;4.80;66.40;;;;;;5106212;28;27370;-61
2021/04/13 02:51:48;;;;;;;10.07;5.60;;;4.70;66.40;;;;;;5106798;28;27430;-61
2021/04/13 02:54:58;;;;;;;6.65;5.18;;;4.70;66.30;;;;;;5107281;28;27313;-60
2021/04/13 02:58:28;;;;;;;9.18;4.53;;;4.70;66.90;;;;;;5107359;28;27489;-61
2021/04/13 03:01:41;;;;;;;7.63;4.80;;;4.70;66.20;;;;;;5106971;28;27422;-61
2021/04/13 03:04:41;;;;;;;5.78;4.70;;;4.60;66.10;;;;;;5106890;28;27434;-62
2021/04/13 03:07:55;;;;;;;7.65;4.82;;;4.60;66.10;;;;;;5106170;28;27323;-60
2021/04/13 03:11:19;;;;;;;6.85;4.85;;;4.60;66.20;;;;;;5103777;28;27386;-61
2021/04/13 03:14:50;;;;;;;7.18;4.97;;;4.60;66.10;;;;;;5105681;28;27367;-60
2021/04/13 03:18:22;;;;;;;6.82;4.90;;;4.50;66.10;;;;;;5104718;28;27475;-64
2021/04/13 03:21:32;;;;;;;11.73;5.35;;;4.50;66.10;;;;;;5105013;27;27320;-62
2021/04/13 03:24:41;;;;;;;7.57;5.03;;;4.40;66.20;;;;;;5106257;28;27864;-61
2021/04/13 03:27:47;;;;;;;5.53;4.80;;;4.40;66.10;;;;;;5106577;28;27336;-60
2021/04/13 03:31:15;;;;;;;6.68;5.32;;;4.40;66.30;;;;;;5103332;28;27307;-61
2021/04/13 03:34:51;;;;;;;7.88;5.53;;;4.40;66.20;;;;;;5106188;28;27417;-61
2021/04/13 03:38:04;;;;;;;12.15;5.00;;;4.30;66.10;;;;;;5106726;28;27837;-61
2021/04/13 03:41:10;;;;;;;6.80;5.05;;;4.30;67.10;;;;;;5105868;28;27498;-61
2021/04/13 03:44:16;;;;;;;5.57;4.88;;;4.30;66.40;;;;;;5106258;28;27435;-61
2021/04/13 03:47:14;;;;;;;6.55;5.05;;;4.20;66.40;;;;;;5106352;28;27414;-60
2021/04/13 03:49:58;;;;;;;9.15;5.78;;;4.20;66.40;;;;;;5092327;28;27989;-65
2021/04/13 03:53:04;;;;;;;7.93;5.18;;;4.20;66.40;;;;;;5105587;28;27427;-60
2021/04/13 03:56:37;;;;;;;6.05;4.85;;;4.20;66.60;;;;;;5106218;28;27379;-60
2021/04/13 03:59:39;;;;;;;7.63;5.43;;;4.20;66.70;;;;;;5105601;28;27346;-61
2021/04/13 04:03:06;;;;;;;5.65;5.05;;;4.20;66.90;;;;;;5105159;28;27408;-62
2021/04/13 04:06:16;;;;;;;10.82;4.95;;;4.20;67.30;;;;;;5105079;28;27398;-60
2021/04/13 04:10:10;;;;;;;7.30;5.45;;;4.20;67.80;;;;;;5100900;28;27371;-60
2021/04/13 04:13:32;;;;;;;10.18;6.05;;;4.20;68.40;;;;;;5102915;28;27620;-60
2021/04/13 04:16:28;;;;;;;7.13;5.68;;;4.30;68.90;;;;;;5103070;28;27515;-61
2021/04/13 04:19:19;;;;;;;8.50;6.18;;;4.30;69.10;;;;;;5103877;28;27506;-62
2021/04/13 04:22:25;;;;;;;7.10;5.65;;;4.30;69.40;;;;;;5104834;28;27457;-62
2021/04/13 04:25:32;;;;;;;8.80;6.47;;;4.30;69.50;;;;;;5104744;28;27476;-60
2021/04/13 04:29:02;;;;;;;6.90;5.68;;;4.20;69.80;;;;;;5103522;28;27797;-60
2021/04/13 04:32:33;;;;;;;6.85;5.53;;;4.30;69.80;;;;;;5100036;27;27371;-61
2021/04/13 04:35:43;;;;;;;8.63;6.22;;;4.30;69.40;;;;;;5103881;28;27418;-62
2021/04/13 04:39:20;;;;;;;8.98;7.57;;;4.40;69.30;;;;;;5104380;28;27481;-61
2021/04/13 04:42:29;;;;;;;7.25;6.18;;;4.40;69.70;;;;;;5101187;28;27933;-61
2021/04/13 04:45:49;;;;;;;10.00;7.22;;;4.40;68.80;;;;;;5100183;28;27490;-61
2021/04/13 04:49:39;;;;;;;7.22;6.28;;;4.30;68.40;;;;;;5100748;28;27332;-61
2021/04/13 04:52:45;;;;;;;7.38;6.13;;;4.30;68.30;;;;;;5103664;28;27382;-60
2021/04/13 04:55:58;;;;;;;7.82;6.47;;;4.30;68.00;;;;;;5104097;28;28093;-60
2021/04/13 04:59:11;;;;;;;7.47;6.28;;;4.30;68.00;;;;;;5104408;28;27324;-61
2021/04/13 05:02:23;;;;;;;10.52;6.72;;;4.30;67.90;;;;;;5100739;28;27387;-61
2021/04/13 05:05:36;;;;;;;7.97;6.13;;;4.30;67.90;;;;;;5102604;28;27493;-60
2021/04/13 05:08:48;;;;;;;7.60;5.55;;;4.30;67.80;;;;;;5103687;28;27385;-61
2021/04/13 05:11:53;;;;;;;7.78;6.38;;;4.20;67.70;;;;;;5101429;28;27536;-61
2021/04/13 05:15:06;;;;;;;6.93;6.22;;;4.30;68.60;;;;;;5100626;28;27439;-61
2021/04/13 05:18:14;;;;;;;7.57;6.20;;;4.20;67.80;;;;;;5100896;28;27395;-61
2021/04/13 05:21:29;;;;;;;8.10;7.28;;;4.30;67.90;;;;;;5103487;28;27328;-60
2021/04/13 05:24:22;;;;;;;10.50;7.65;;;4.30;67.90;;;;;;5103817;28;27356;-60
2021/04/13 05:27:33;;;;;;;8.15;7.05;;;4.30;68.00;;;;;;5103853;28;27479;-62
2021/04/13 05:30:38;;;;;;;9.10;7.30;;;4.30;68.10;;;;;;5100904;28;27597;-60
2021/04/13 05:34:07;;;;;;;9.13;7.53;;;4.40;68.20;;;;;;5100344;28;27821;-60
2021/04/13 05:37:33;;;;;;;9.43;6.55;;;4.40;68.50;;;;;;5099785;28;27366;-61
2021/04/13 05:40:52;;;;;;;9.77;7.05;;;4.40;69.00;;;;;;5102023;28;27391;-61
2021/04/13 05:44:04;;;;;;;9.25;7.45;;;4.50;69.50;;;;;;5102902;27;27306;-61
2021/04/13 05:47:27;;;;;;;8.57;7.13;;;4.60;70.00;;;;;;5102157;28;27321;-60
2021/04/13 05:50:53;;;;;;;9.27;6.93;;;4.70;70.30;;;;;;5099373;28;27407;-61
2021/04/13 05:54:03;;;;;;;9.98;7.05;;;4.80;70.60;;;;;;5099993;28;26958;-62
2021/04/13 05:57:10;;;;;;;8.75;7.15;;;4.90;70.80;;;;;;5101760;28;27488;-61
2021/04/13 06:00:04;;;;;;;8.93;7.32;;;4.90;70.80;;;;;;5102471;28;27474;-61
2021/04/13 06:03:31;;;;;;;11.35;6.97;;;5.00;70.90;;;;;;5102266;28;27503;-61
2021/04/13 06:06:42;;;;;;;11.23;7.22;;;5.00;70.80;;;;;;5103182;28;27465;-60
2021/04/13 06:09:55;;;;;;;11.20;7.25;;;5.10;70.80;;;;;;5101734;28;27081;-61
2021/04/13 06:13:20;;;;;;;8.93;7.45;;;5.30;71.10;;;;;;5103255;28;27409;-60
2021/04/13 06:16:49;;;;;;;14.00;8.63;;;5.30;70.90;;;;;;5102809;28;27403;-61
2021/04/13 06:20:19;;;;;;;12.55;9.02;;;5.50;71.00;;;;;;5102235;28;27561;-61
2021/04/13 06:23:30;;;;;;;17.38;10.80;;;5.70;71.00;;;;;;5101880;28;27553;-60
2021/04/13 06:26:57;;;;;;;13.50;9.20;;;5.80;70.90;;;;;;5102409;28;27470;-61
2021/04/13 06:30:05;;;;;;;11.27;8.68;;;6.00;70.50;;;;;;5102593;28;27393;-60
2021/04/13 06:33:32;;;;;;;13.02;8.45;;;6.20;70.40;;;;;;5103034;28;27398;-61
2021/04/13 06:37:17;;;;;;;10.10;7.97;;;6.40;70.60;;;;;;5102333;28;27666;-60
2021/04/13 06:40:41;;;;;;;10.02;6.95;;;6.70;70.40;;;;;;5102738;28;27352;-61
2021/04/13 06:43:54;;;;;;;9.43;7.38;;;6.80;70.00;;;;;;5099442;28;27321;-61
2021/04/13 06:47:40;;;;;;;9.00;6.45;;;7.10;70.00;;;;;;5099244;28;27453;-60
2021/04/13 06:51:09;;;;;;;10.10;7.38;;;7.50;69.50;;;;;;5102410;28;27466;-61
2021/04/13 06:54:09;;;;;;;8.57;6.40;;;8.00;67.20;;;;;;5102255;28;27482;-61
2021/04/13 06:57:31;;;;;;;8.30;6.80;;;8.30;67.50;;;;;;5102119;28;27360;-61
2021/04/13 07:00:38;;;;;;;7.57;6.32;;;8.40;67.30;;;;;;5106558;28;27463;-69
2021/04/13 07:03:43;;;;;;;8.75;6.95;;;8.50;66.10;;;;;;5106740;28;27395;-65
2021/04/13 07:07:01;;;;;;;8.27;6.43;;;8.60;64.50;;;;;;5103248;28;27324;-70
2021/04/13 07:10:25;;;;;;;7.55;6.43;;;8.90;64.50;;;;;;5106492;28;27351;-64
2021/04/13 07:13:32;;;;;;;7.97;6.07;;;9.80;92.10;;;;;;5106717;28;27340;-63
2021/04/13 07:16:38;;;;;;;7.57;5.72;;;9.90;69.80;;;;;;5105464;28;27348;-61
2021/04/13 07:19:39;;;;;;;6.22;5.47;;;9.90;69.50;;;;;;5104866;28;27860;-60
2021/04/13 07:22:38;;;;;;;12.10;5.85;;;10.20;61.70;;;;;;5105560;28;27441;-61
2021/04/13 07:26:02;;;;;;;10.23;6.43;;;10.30;61.40;;;;;;5106324;28;27455;-60
2021/04/13 07:29:28;;;;;;;9.70;6.97;;;10.50;59.00;;;;;;5106359;28;27348;-61
2021/04/13 07:32:53;;;;;;;10.27;7.00;;;10.90;59.40;;;;;;5104851;28;27291;-60
2021/04/13 07:36:18;;;;;;;7.55;5.63;;;11.30;60.20;;;;;;5105677;28;27490;-61
2021/04/13 07:39:24;;;;;;;12.80;6.88;;;11.70;61.10;;;;;;5106135;28;27374;-61
2021/04/13 07:42:30;;;;;;;7.35;5.63;;;11.90;60.00;;;;;;5105710;28;27510;-61
2021/04/13 07:45:23;;;;;;;9.38;6.93;;;11.70;59.90;;;;;;5105565;28;27469;-62
2021/04/13 07:48:22;;;;;;;8.43;6.25;;;11.40;60.90;;;;;;5104387;28;27622;-64
2021/04/13 07:51:58;;;;;;;6.90;6.20;;;11.10;60.90;;;;;;5104287;28;27403;-61
2021/04/13 07:55:19;;;;;;;7.43;6.72;;;10.70;62.90;;;;;;5101706;28;27423;-60
2021/04/13 07:58:34;;;;;;;10.43;7.65;;;10.40;64.90;;;;;;5105030;28;27381;-61
2021/04/13 08:01:56;;;;;;;10.60;8.57;;;10.20;65.20;;;;;;5104945;28;27340;-59
2021/04/13 08:05:22;;;;;;;11.50;8.52;;;10.00;65.70;;;;;;5105082;28;27373;-60
2021/04/13 08:08:52;;;;;;;7.32;6.38;;;9.80;67.20;;;;;;5103204;28;27403;-60
2021/04/13 08:12:06;;;;;;;11.07;8.68;;;9.70;67.90;;;;;;5104332;28;27410;-60
2021/04/13 08:15:07;;;;;;;9.07;7.85;;;9.70;70.30;;;;;;5102195;28;27428;-60
2021/04/13 08:18:02;;;;;;;12.25;8.02;;;9.80;69.40;;;;;;5104762;28;27313;-60
2021/04/13 08:21:19;;;;;;;8.27;7.22;;;9.80;69.20;;;;;;5101119;28;27391;-58
2021/04/13 08:24:32;;;;;;;8.57;7.60;;;10.00;68.90;;;;;;5104497;28;27871;-60
2021/04/13 08:27:31;;;;;;;12.40;8.07;;;10.10;69.20;;;;;;5105103;28;27355;-60
2021/04/13 08:35:17;;;;;;;9.82;7.85;;;10.40;67.50;;;;;;5101108;28;27495;-61
2021/04/13 08:38:47;;;;;;;12.15;7.95;;;10.60;67.00;;;;;;5104713;28;27463;-62
2021/04/13 08:41:39;;;;;;;8.90;7.30;;;10.70;67.30;;;;;;5104202;28;27448;-60
2021/04/13 08:44:42;;;;;;;11.82;8.43;;;10.80;66.10;;;;;;5105039;28;27509;-60
2021/04/13 08:47:54;;;;;;;9.32;8.25;;;11.30;66.60;;;;;;5104623;28;27319;-61
2021/04/13 08:51:31;;;;;;;9.45;7.82;;;12.00;65.00;;;;;;5104350;28;27135;-61
2021/04/13 08:54:47;;;;;;;12.25;7.78;;;12.60;62.30;;;;;;5104456;28;27381;-61
2021/04/13 08:58:17;;;;;;;10.95;8.73;;;12.60;59.20;;;;;;5100566;28;27374;-62
2021/04/13 09:01:20;;;;;;;9.05;7.68;;;12.40;60.20;;;;;;5104581;28;27420;-61
2021/04/13 09:04:52;;;;;;;8.60;7.80;;;12.20;61.30;;;;;;5087955;28;27914;-61
2021/04/13 09:07:54;;;;;;;9.68;7.70;;;11.80;62.80;;;;;;5104291;28;27487;-60
2021/04/13 09:11:03;;;;;;;10.38;9.23;;;11.50;62.20;;;;;;5103040;28;27562;-61
2021/04/13 09:14:28;;;;;;;8.40;7.57;;;11.20;61.20;;;;;;5100774;28;27386;-60
2021/04/13 09:17:44;;;;;;;7.47;6.68;;;10.90;63.50;;;;;;5104335;28;28061;-66
2021/04/13 09:20:47;;;;;;;6.88;6.18;;;10.60;63.90;;;;;;5104023;28;27426;-62
2021/04/13 09:24:02;;;;;;;6.60;5.90;;;10.50;63.40;;;;;;5103464;28;27381;-62
2021/04/13 09:27:07;;;;;;;8.45;6.07;;;10.50;63.90;;;;;;5103682;28;27319;-61
2021/04/13 09:30:23;;;;;;;7.40;5.40;;;10.90;65.30;;;;;;5103788;28;27318;-61
2021/04/13 09:33:19;;;;;;;5.50;5.00;;;11.20;64.00;;;;;;5100507;28;27504;-61
2021/04/13 09:36:27;;;;;;;5.53;4.30;;;11.30;62.90;;;;;;5100392;28;27403;-61
2021/04/13 09:39:33;;;;;;;7.75;4.70;;;11.20;62.80;;;;;;5103250;28;27470;-61
2021/04/13 09:43:10;;;;;;;5.70;4.28;;;11.20;61.50;;;;;;5103376;28;27945;-61
2021/04/13 09:46:50;;;;;;;4.45;4.05;;;11.10;61.90;;;;;;5102687;28;27439;-61
2021/04/13 09:49:49;;;;;;;5.20;4.40;;;11.00;63.50;;;;;;5102765;28;27845;-61
2021/04/13 09:53:16;;;;;;;4.63;3.70;;;11.00;61.10;;;;;;5103560;28;27395;-61
2021/04/13 09:56:46;;;;;;;6.80;4.20;;;11.10;62.20;;;;;;5103074;28;27434;-61
2021/04/13 09:59:54;;;;;;;7.93;4.65;;;11.10;62.00;;;;;;5103525;28;27511;-61
2021/04/13 10:03:22;;;;;;;6.20;3.83;;;11.20;60.30;;;;;;5099170;28;27374;-61
2021/04/13 10:06:30;;;;;;;6.30;4.93;;;11.50;61.90;;;;;;5102236;28;27390;-60
2021/04/13 10:10:01;;;;;;;5.03;4.53;;;12.00;60.10;;;;;;5103423;28;27414;-60
2021/04/13 10:13:08;;;;;;;3.72;3.22;;;12.20;58.80;;;;;;5103368;28;27404;-60
2021/04/13 10:16:33;;;;;;;4.43;3.78;;;12.40;58.70;;;;;;5099860;28;27532;-61
2021/04/13 10:19:30;;;;;;;4.03;3.35;;;12.30;55.20;;;;;;5102620;28;27624;-63
2021/04/13 10:22:52;;;;;;;4.65;3.58;;;12.40;57.40;;;;;;5103579;28;27335;-61
2021/04/13 10:26:20;;;;;;;3.63;2.80;;;12.50;56.70;;;;;;5103284;28;27362;-61
2021/04/13 10:29:28;;;;;;;5.10;4.60;;;12.40;59.20;;;;;;5103185;27;27355;-61
2021/04/13 10:33:21;;;;;;;5.22;4.65;;;12.30;59.60;;;;;;5105149;28;27467;-61
2021/04/13 10:37:25;;;;;;;4.40;4.00;;;12.20;59.20;;;;;;5106095;27;27432;-61
2021/04/13 10:40:42;;;;;;;6.20;4.50;;;12.20;59.50;;;;;;5106140;28;27469;-60
2021/04/13 10:44:15;;;;;;;9.20;4.25;;;12.20;58.00;;;;;;5103021;28;27485;-61
2021/04/13 10:47:42;;;;;;;5.32;4.78;;;12.20;59.40;;;;;;5106616;28;27406;-61
2021/04/13 10:51:05;;;;;;;6.72;3.50;;;12.60;57.70;;;;;;5105702;28;27428;-61
2021/04/13 10:54:52;;;;;;;5.40;4.75;;;13.20;57.60;;;;;;5106524;28;27406;-62
2021/04/13 10:58:38;;;;;;;5.97;4.07;;;13.90;55.80;;;;;;5105881;28;27355;-61
2021/04/13 11:02:20;;;;;;;5.05;4.18;;;14.20;54.70;;;;;;5106286;28;27411;-61
2021/04/13 11:06:24;;;;;;;4.32;3.53;;;14.70;55.60;;;;;;5106398;28;27410;-60
2021/04/13 11:09:50;;;;;;;5.60;4.28;;;15.20;56.70;;;;;;5104189;28;27354;-60
2021/04/13 11:13:25;;;;;;;6.35;4.25;;;15.50;56.20;;;;;;5086720;28;27468;-61
2021/04/13 11:16:55;;;;;;;6.05;5.45;;;15.40;54.20;;;;;;5103808;28;27471;-60
2021/04/13 11:20:20;;;;;;;4.88;4.00;;;15.00;53.60;;;;;;5083680;28;27676;-61
2021/04/13 11:23:46;;;;;;;4.70;3.25;;;14.60;54.30;;;;;;5080499;28;27503;-62
2021/04/13 11:26:57;;;;;;;5.85;4.75;;;14.20;54.90;;;;;;5083094;28;27483;-62
2021/04/13 11:31:00;;;;;;;5.88;4.30;;;13.90;54.60;;;;;;5080061;28;27593;-61
2021/04/13 11:34:07;;;;;;;6.75;4.22;;;13.70;53.80;;;;;;5068198;28;27528;-61
2021/04/13 11:37:30;;;;;;;5.65;4.72;;;13.80;55.20;;;;;;5065565;28;27452;-61
2021/04/13 11:40:48;;;;;;;4.82;4.40;;;13.90;53.50;;;;;;5068640;28;27438;-62
2021/04/13 11:43:59;;;;;;;4.65;3.90;;;14.30;54.40;;;;;;5065130;28;27365;-61
2021/04/13 11:47:17;;;;;;;7.35;4.10;;;14.50;56.30;;;;;;5063839;28;27869;-60
2021/04/13 11:50:30;;;;;;;4.53;4.07;;;14.40;53.20;;;;;;5064669;28;27478;-60
2021/04/13 11:53:39;;;;;;;5.07;3.30;;;14.20;53.40;;;;;;5061896;28;27667;-63
2021/04/13 11:56:36;;;;;;;6.07;3.90;;;14.20;56.40;;;;;;5064278;28;27403;-63
2021/04/13 11:59:55;;;;;;;5.38;3.72;;;14.30;56.20;;;;;;5064324;28;27939;-61
2021/04/13 12:03:41;;;;;;;3.63;3.30;;;14.30;57.00;;;;;;5063009;28;27410;-61
2021/04/13 12:06:52;;;;;;;3.33;2.80;;;14.30;55.00;;;;;;5064025;28;27425;-61
2021/04/13 12:10:02;;;;;;;5.15;4.07;;;14.50;54.60;;;;;;5064280;28;27392;-60
2021/04/13 12:13:09;;;;;;;3.20;2.90;;;14.50;51.50;;;;;;5064536;28;27434;-61
2021/04/13 12:15:59;;;;;;;3.03;2.72;;;14.50;52.00;;;;;;5064364;28;27421;-61
2021/04/13 12:19:11;;;;;;;6.43;2.83;;;14.70;55.20;;;;;;5078861;28;27497;-61
2021/04/13 12:22:48;;;;;;;4.22;3.28;;;14.80;56.10;;;;;;5104592;28;27316;-61
2021/04/13 12:25:53;;;;;;;2.88;2.65;;;14.60;53.50;;;;;;5104149;28;27609;-61
2021/04/13 12:29:22;;;;;;;5.15;3.33;;;14.40;55.80;;;;;;5105179;28;27331;-61
2021/04/13 12:32:18;;;;;;;2.38;2.08;;;14.30;54.70;;;;;;5105421;28;27419;-62
2021/04/13 12:35:53;;;;;;;2.10;1.90;;;14.40;53.50;;;;;;5104601;28;27389;-61
2021/04/13 12:39:34;;;;;;;3.08;2.78;;;14.50;56.10;;;;;;5104620;28;28067;-61
2021/04/13 12:42:35;;;;;;;2.72;2.35;;;14.60;52.60;;;;;;5104322;28;27516;-61
2021/04/13 12:45:27;;;;;;;2.35;2.10;;;14.60;53.80;;;;;;5104516;28;27327;-60
2021/04/13 12:48:27;;;;;;;2.65;2.08;;;14.80;59.10;;;;;;5103607;28;27462;-61
2021/04/13 12:51:59;;;;;;;4.63;2.85;;;15.00;58.90;;;;;;5103058;28;27398;-61
2021/04/13 12:55:13;;;;;;;3.00;1.63;;;15.20;56.70;;;;;;5100022;28;27422;-60
2021/04/13 12:58:01;;;;;;;5.50;3.35;;;15.40;59.10;;;;;;5104101;28;27514;-60
2021/04/13 13:01:22;;;;;;;2.60;2.20;;;15.60;58.40;;;;;;5103213;28;27410;-60
2021/04/13 13:04:37;;;;;;;2.28;2.08;;;15.70;56.30;;;;;;5104153;28;27805;-61
2021/04/13 13:07:23;;;;;;;2.88;2.53;;;15.60;53.80;;;;;;5103676;28;27430;-64
2021/04/13 13:10:32;;;;;;;3.03;2.72;;;15.50;51.90;;;;;;5104083;28;27320;-61
2021/04/13 13:13:25;;;;;;;3.47;2.83;;;15.30;52.00;;;;;;5103188;28;27356;-61
2021/04/13 13:17:06;;;;;;;2.97;2.75;;;15.10;51.80;;;;;;5103178;28;27403;-60
2021/04/13 13:20:17;;;;;;;3.00;2.30;;;14.70;54.10;;;;;;5102265;28;27432;-60
2021/04/13 13:23:27;;;;;;;2.85;2.63;;;14.40;54.50;;;;;;5102858;28;27339;-60
2021/04/13 13:26:30;;;;;;;2.42;2.22;;;14.30;52.70;;;;;;5103284;28;27640;-60
2021/04/13 13:30:02;;;;;;;3.20;2.13;;;14.30;53.70;;;;;;5103415;28;27323;-60
2021/04/13 13:33:05;;;;;;;3.50;2.60;;;14.40;53.50;;;;;;5103565;28;27347;-60
2021/04/13 13:36:11;;;;;;;4.53;2.50;;;14.50;50.00;;;;;;5103477;28;27348;-60
2021/04/13 13:38:57;;;;;;;4.72;1.80;;;14.70;55.10;;;;;;5103682;28;27347;-61
2021/04/13 13:42:25;;;;;;;2.40;1.90;;;14.80;55.80;;;;;;5100048;28;27371;-60
2021/04/13 13:45:30;;;;;;;2.13;1.92;;;15.00;55.80;;;;;;5103386;28;27422;-60
2021/04/13 13:48:24;;;;;;;3.55;1.88;;;15.10;55.50;;;;;;5103338;28;27433;-60
2021/04/13 13:51:39;;;;;;;2.67;1.63;;;15.20;53.50;;;;;;5099141;28;27419;-60
2021/04/13 13:55:04;;;;;;;3.55;2.30;;;15.40;50.90;;;;;;5103155;28;27615;-61
2021/04/13 13:58:21;;;;;;;2.20;1.88;;;15.50;49.70;;;;;;5102680;28;27430;-61
2021/04/13 14:01:49;;;;;;;2.55;2.20;;;15.60;51.80;;;;;;5103464;28;27396;-60
2021/04/13 14:05:32;;;;;;;2.83;1.83;;;15.60;49.90;;;;;;5099880;28;26853;-60
2021/04/13 14:08:28;;;;;;;4.20;1.98;;;15.60;52.00;;;;;;5105704;27;27914;-60
2021/04/13 14:11:24;;;;;;;2.38;2.17;;;15.80;54.00;;;;;;5106710;28;27411;-61
2021/04/13 14:14:19;;;;;;;4.72;2.55;;;15.80;53.50;;;;;;5106956;28;27458;-60
2021/04/13 14:17:44;;;;;;;4.60;2.67;;;15.80;52.10;;;;;;5106515;28;27495;-60
2021/04/13 14:20:58;;;;;;;6.20;2.85;;;15.70;50.00;;;;;;5104890;28;27422;-60
2021/04/13 14:24:32;;;;;;;1.92;1.73;;;15.60;50.30;;;;;;5105136;28;27424;-60
2021/04/13 14:28:31;;;;;;;3.67;2.10;;;15.60;50.80;;;;;;5106391;28;27783;-60
2021/04/13 14:31:57;;;;;;;1.70;1.60;;;15.60;51.30;;;;;;5101324;27;27369;-61
2021/04/13 14:35:30;;;;;;;4.20;2.10;;;15.60;50.50;;;;;;5106339;28;27349;-60
2021/04/13 14:38:18;;;;;;;1.73;1.20;;;15.60;50.00;;;;;;5105685;28;27312;-63
2021/04/13 14:41:32;;;;;;;1.55;1.45;;;15.60;50.40;;;;;;5102204;28;27268;-62
2021/04/13 14:44:19;;;;;;;3.10;2.53;;;15.60;49.30;;;;;;5105968;28;27379;-60
2021/04/13 14:47:29;;;;;;;3.80;1.90;;;15.60;49.20;;;;;;5105226;28;28058;-60
2021/04/13 14:50:43;;;;;;;2.35;1.67;;;15.40;47.30;;;;;;5103223;28;27317;-62
2021/04/13 14:53:55;;;;;;;3.08;2.15;;;15.20;49.80;;;;;;5106296;28;27436;-64
2021/04/13 14:57:08;;;;;;;4.97;2.45;;;15.10;50.90;;;;;;5104314;28;27401;-62
2021/04/13 15:00:20;;;;;;;2.97;2.38;;;15.00;51.50;;;;;;5104613;28;27328;-61
2021/04/13 15:03:48;;;;;;;1.92;1.50;;;14.90;51.40;;;;;;5104222;28;27382;-62
2021/04/13 15:06:50;;;;;;;1.73;1.52;;;14.90;52.10;;;;;;5105798;28;27498;-61
2021/04/13 15:09:56;;;;;;;2.75;1.98;;;14.90;51.80;;;;;;5087535;28;27336;-61
2021/04/13 15:13:11;;;;;;;2.95;2.50;;;15.00;50.60;;;;;;5105674;28;27329;-62
2021/04/13 15:16:12;;;;;;;1.70;1.60;;;15.00;49.70;;;;;;5104700;28;27359;-61
2021/04/13 15:19:35;;;;;;;2.58;2.22;;;15.00;50.50;;;;;;5088327;28;27634;-61
2021/04/13 15:22:49;;;;;;;3.50;1.85;;;15.00;48.60;;;;;;5105567;28;27417;-62
2021/04/13 15:26:01;;;;;;;3.78;1.88;;;15.00;49.30;;;;;;5105654;28;27468;-61
2021/04/13 15:29:17;;;;;;;2.67;2.13;;;15.10;48.90;;;;;;5104638;28;27325;-62
2021/04/13 15:32:44;;;;;;;2.83;1.60;;;15.00;48.60;;;;;;5104460;28;27365;-63
2021/04/13 15:36:26;;;;;;;3.50;1.63;;;15.00;48.30;;;;;;5102152;28;27382;-61
2021/04/13 15:39:44;;;;;;;3.70;2.60;;;15.00;48.80;;;;;;5106478;28;27397;-61
2021/04/13 15:43:18;;;;;;;3.80;2.15;;;15.00;43.50;;;;;;5106066;28;27367;-61
2021/04/13 15:46:42;;;;;;;2.72;1.88;;;15.00;44.50;;;;;;5105738;27;27390;-61
2021/04/13 15:49:57;;;;;;;2.70;1.73;;;15.00;45.50;;;;;;5106306;28;27366;-61
2021/04/13 15:53:28;;;;;;;2.10;1.90;;;15.00;45.60;;;;;;5106570;28;27378;-61
2021/04/13 15:56:34;;;;;;;3.92;2.13;;;14.90;46.10;;;;;;5105698;28;27485;-61
2021/04/13 15:59:49;;;;;;;3.47;2.40;;;14.80;48.20;;;;;;5105476;28;27600;-61
2021/04/13 16:03:04;;;;;;;2.75;1.98;;;14.70;48.10;;;;;;5106703;28;27416;-60
2021/04/13 16:06:05;;;;;;;2.20;2.00;;;14.60;48.30;;;;;;5106041;28;27917;-61
2021/04/13 16:09:19;;;;;;;2.47;1.98;;;14.40;48.80;;;;;;5106336;28;27548;-60
2021/04/13 16:12:35;;;;;;;3.78;2.35;;;14.30;49.80;;;;;;5106476;28;27418;-60
2021/04/13 16:15:57;;;;;;;2.33;1.92;;;14.30;49.00;;;;;;5105160;28;27655;-61
2021/04/13 16:18:59;;;;;;;4.97;2.10;;;14.20;50.20;;;;;;5105083;28;27616;-60
2021/04/13 16:22:14;;;;;;;4.55;2.10;;;14.10;50.20;;;;;;5106177;28;27427;-60
2021/04/13 16:25:42;;;;;;;2.97;2.00;;;14.10;51.30;;;;;;5105494;28;27573;-60
2021/04/13 16:29:05;;;;;;;6.15;2.50;;;14.10;49.90;;;;;;5104462;27;27324;-62
2021/04/13 16:31:56;;;;;;;4.32;2.38;;;14.00;50.40;;;;;;5105671;28;27952;-60
2021/04/13 16:35:18;;;;;;;2.70;2.28;;;14.00;50.40;;;;;;5104802;28;27425;-61
2021/04/13 16:38:12;;;;;;;3.88;2.50;;;14.00;49.40;;;;;;5105557;28;27332;-64
2021/04/13 16:41:15;;;;;;;4.65;2.63;;;14.00;48.90;;;;;;5105077;28;26962;-60
2021/04/13 16:44:42;;;;;;;4.53;2.83;;;14.00;48.80;;;;;;5105450;28;27821;-61
2021/04/13 16:47:48;;;;;;;3.80;2.72;;;14.00;48.30;;;;;;5105034;28;27604;-61
2021/04/13 16:51:13;;;;;;;2.72;2.40;;;14.00;49.20;;;;;;5105417;28;27388;-60
2021/04/13 16:54:19;;;;;;;3.30;2.38;;;14.00;48.60;;;;;;5105432;28;27399;-60
2021/04/13 16:57:33;;;;;;;4.88;2.67;;;14.00;47.50;;;;;;5105187;28;28043;-60
2021/04/13 17:00:54;;;;;;;2.70;2.00;;;14.00;48.00;;;;;;5105106;28;27336;-60
2021/04/13 17:04:29;;;;;;;4.18;2.95;;;14.00;46.00;;;;;;5105550;28;27414;-60
2021/04/13 17:07:49;;;;;;;4.63;2.40;;;14.00;44.50;;;;;;5105337;28;27383;-60
2021/04/13 17:11:00;;;;;;;5.25;2.60;;;13.90;45.40;;;;;;5104361;28;27429;-61
2021/04/13 17:14:26;;;;;;;2.20;2.00;;;13.70;45.10;;;;;;5104271;28;27317;-60